Time;durP1;ratioP1;P1;durP2;ratioP2;P2;SDS_P1;SDS_P2;PMS_P1;PMS_P2;Temp;Humidity;BMP_temperature;BMP_pressure;BME280_temperature;BME280_humidity;BME280_pressure;Samples;Min_cycle;Max_cycle;Signal;HPM_P1;HPM_P2
2023/06/21 00:01:00;;;;;;;18.33;11.52;;;;;;;;;;5040878;28;20046;-80
2023/06/21 00:03:29;;;;;;;17.20;11.35;;;;;;;;;;5039637;28;20548;-81
2023/06/21 00:05:57;;;;;;;17.05;12.18;;;;;;;;;;5039637;28;20053;-80
2023/06/21 00:08:23;;;;;;;14.35;9.57;;;;;;;;;;5056549;28;20516;-81
2023/06/21 00:10:50;;;;;;;16.80;8.30;;;;;;;;;;5056993;28;20060;-81
2023/06/21 00:13:17;;;;;;;12.57;8.15;;;;;;;;;;5050047;28;20052;-82
2023/06/21 00:15:46;;;;;;;14.45;8.60;;;;;;;;;;5044312;28;20103;-82
2023/06/21 00:18:13;;;;;;;14.07;8.15;;;;;;;;;;5050589;28;20049;-81
2023/06/21 00:20:40;;;;;;;15.07;8.00;;;;;;;;;;5051805;28;20069;-79
2023/06/21 00:23:08;;;;;;;15.25;8.07;;;;;;;;;;5052132;28;20052;-81
2023/06/21 00:25:35;;;;;;;12.43;7.55;;;;;;;;;;5025396;28;20593;-82
2023/06/21 00:28:05;;;;;;;16.13;7.32;;;;;;;;;;5024579;28;20066;-82
2023/06/21 00:30:32;;;;;;;12.10;7.25;;;;;;;;;;5039638;28;20524;-82
2023/06/21 00:33:00;;;;;;;13.18;6.63;;;;;;;;;;5040059;28;20050;-82
2023/06/21 00:35:30;;;;;;;13.27;6.00;;;;;;;;;;5036494;28;20091;-82
2023/06/21 00:37:56;;;;;;;11.98;5.30;;;;;;;;;;5035765;28;20094;-82
2023/06/21 00:40:25;;;;;;;8.73;4.85;;;;;;;;;;5029270;28;20042;-80
2023/06/21 00:43:01;;;;;;;9.98;4.72;;;;;;;;;;5024689;28;20042;-80
2023/06/21 00:45:27;;;;;;;7.47;4.47;;;;;;;;;;5037458;28;20046;-80
2023/06/21 00:47:57;;;;;;;8.95;4.60;;;;;;;;;;5022283;28;20041;-81
2023/06/21 00:50:25;;;;;;;14.43;4.85;;;;;;;;;;5036530;28;20486;-81
2023/06/21 00:52:52;;;;;;;12.07;5.25;;;;;;;;;;5036093;28;20047;-81
2023/06/21 00:55:19;;;;;;;13.70;5.35;;;;;;;;;;5020272;28;20037;-80
2023/06/21 00:57:46;;;;;;;14.55;5.47;;;;;;;;;;5030463;28;20670;-81
2023/06/21 01:00:17;;;;;;;8.45;5.28;;;;;;;;;;5038059;28;20046;-81
2023/06/21 01:02:43;;;;;;;11.60;6.05;;;;;;;;;;5037739;28;20041;-80
2023/06/21 01:05:10;;;;;;;12.65;5.80;;;;;;;;;;5037544;28;20040;-80
2023/06/21 01:07:55;;;;;;;9.43;5.93;;;;;;;;;;5039597;28;20513;-81
2023/06/21 01:10:37;;;;;;;10.73;6.50;;;;;;;;;;5041139;28;20059;-81
2023/06/21 01:13:22;;;;;;;14.02;6.43;;;;;;;;;;5058839;28;20105;-82
2023/06/21 01:15:57;;;;;;;11.60;5.88;;;;;;;;;;5040869;28;20405;-80
2023/06/21 01:18:26;;;;;;;10.90;5.20;;;;;;;;;;5034616;28;20053;-81
2023/06/21 01:20:56;;;;;;;7.57;4.72;;;;;;;;;;5040888;28;20080;-81
2023/06/21 01:23:26;;;;;;;11.77;4.60;;;;;;;;;;5040907;28;20052;-81
2023/06/21 01:26:11;;;;;;;10.75;4.57;;;;;;;;;;5039791;28;20045;-81
2023/06/21 01:28:49;;;;;;;9.07;4.82;;;;;;;;;;5041239;28;20045;-80
2023/06/21 01:31:16;;;;;;;10.88;4.30;;;;;;;;;;5040298;28;20083;-83
2023/06/21 01:33:46;;;;;;;12.27;5.53;;;;;;;;;;5039048;28;20037;-81
2023/06/21 01:36:13;;;;;;;7.07;4.90;;;;;;;;;;5037729;28;20052;-82
2023/06/21 01:38:44;;;;;;;11.77;4.93;;;;;;;;;;5037137;28;20067;-80
2023/06/21 01:41:13;;;;;;;5.45;3.70;;;;;;;;;;5034720;28;20049;-81
2023/06/21 01:43:39;;;;;;;16.20;3.80;;;;;;;;;;5035502;28;20052;-81
2023/06/21 01:46:10;;;;;;;7.00;3.35;;;;;;;;;;5035869;28;20049;-81
2023/06/21 01:48:37;;;;;;;9.77;3.65;;;;;;;;;;5036184;28;20045;-81
2023/06/21 01:51:04;;;;;;;6.20;3.38;;;;;;;;;;5035740;28;20052;-81
2023/06/21 01:53:39;;;;;;;8.77;2.47;;;;;;;;;;5039235;28;20041;-82
2023/06/21 01:56:09;;;;;;;5.35;2.75;;;;;;;;;;5040069;28;20049;-81
2023/06/21 01:58:38;;;;;;;6.10;2.55;;;;;;;;;;5038780;28;20108;-81
2023/06/21 02:01:05;;;;;;;4.90;2.40;;;;;;;;;;5044233;28;20053;-81
2023/06/21 02:03:39;;;;;;;3.88;2.33;;;;;;;;;;5042175;28;20037;-80
2023/06/21 02:06:07;;;;;;;4.20;2.13;;;;;;;;;;5041568;28;20059;-80
2023/06/21 02:08:35;;;;;;;7.68;2.15;;;;;;;;;;5043233;28;20469;-80
2023/06/21 02:11:02;;;;;;;5.85;2.20;;;;;;;;;;5041743;28;20099;-81
2023/06/21 02:13:29;;;;;;;3.75;2.03;;;;;;;;;;5042352;28;20068;-82
2023/06/21 02:15:55;;;;;;;6.43;2.47;;;;;;;;;;5042978;28;20113;-82
2023/06/21 02:18:25;;;;;;;9.25;3.00;;;;;;;;;;5045816;28;20069;-82
2023/06/21 02:20:52;;;;;;;5.85;2.25;;;;;;;;;;5051227;28;20034;-80
2023/06/21 02:23:19;;;;;;;6.57;2.25;;;;;;;;;;5040443;28;20413;-79
2023/06/21 02:25:45;;;;;;;5.28;2.20;;;;;;;;;;5038321;28;20037;-80
2023/06/21 02:28:12;;;;;;;6.32;2.28;;;;;;;;;;5038657;28;20049;-79
2023/06/21 02:30:38;;;;;;;7.07;2.30;;;;;;;;;;5034592;28;20572;-80
2023/06/21 02:33:05;;;;;;;6.40;2.13;;;;;;;;;;5040356;28;20045;-79
2023/06/21 02:35:33;;;;;;;4.40;2.10;;;;;;;;;;5037433;28;20045;-80
2023/06/21 02:38:00;;;;;;;5.45;2.17;;;;;;;;;;5038194;28;20088;-80
2023/06/21 02:40:27;;;;;;;3.88;2.20;;;;;;;;;;5035416;28;20104;-80
2023/06/21 02:42:54;;;;;;;5.22;2.13;;;;;;;;;;5052111;28;20096;-81
2023/06/21 02:45:21;;;;;;;8.00;2.30;;;;;;;;;;5036004;28;20057;-79
2023/06/21 02:47:47;;;;;;;6.40;2.10;;;;;;;;;;5035264;28;20058;-79
2023/06/21 02:50:16;;;;;;;3.35;2.05;;;;;;;;;;5038798;28;20091;-80
2023/06/21 02:52:43;;;;;;;5.82;2.22;;;;;;;;;;5048645;28;20068;-80
2023/06/21 02:55:10;;;;;;;5.00;2.10;;;;;;;;;;5045951;28;20567;-80
2023/06/21 02:57:37;;;;;;;4.40;2.05;;;;;;;;;;5063642;28;20126;-81
2023/06/21 03:00:26;;;;;;;6.22;1.80;;;;;;;;;;5036888;28;20079;-79
2023/06/21 03:02:53;;;;;;;4.82;2.10;;;;;;;;;;5038672;28;20068;-79
2023/06/21 03:05:20;;;;;;;11.35;2.70;;;;;;;;;;5039119;28;20100;-80
2023/06/21 03:07:46;;;;;;;6.38;2.47;;;;;;;;;;5038152;28;20045;-81
2023/06/21 03:10:14;;;;;;;11.02;4.05;;;;;;;;;;5037076;28;20559;-81
2023/06/21 03:12:41;;;;;;;12.23;3.83;;;;;;;;;;5033817;28;20073;-80
2023/06/21 03:15:09;;;;;;;29.38;8.00;;;;;;;;;;5033431;28;20054;-80
2023/06/21 03:17:36;;;;;;;23.05;5.95;;;;;;;;;;5019251;28;20080;-81
2023/06/21 03:20:09;;;;;;;22.67;5.40;;;;;;;;;;5034853;28;20048;-81
2023/06/21 03:22:39;;;;;;;8.45;3.45;;;;;;;;;;5023167;28;20053;-82
2023/06/21 03:25:08;;;;;;;8.65;3.47;;;;;;;;;;5038228;28;20038;-80
2023/06/21 03:27:35;;;;;;;7.97;3.40;;;;;;;;;;5006730;28;20052;-85
2023/06/21 03:30:06;;;;;;;8.85;3.30;;;;;;;;;;5047124;28;20065;-83
2023/06/21 03:32:34;;;;;;;9.73;3.40;;;;;;;;;;5045193;28;20038;-84
2023/06/21 03:35:01;;;;;;;7.07;3.42;;;;;;;;;;5065145;28;20048;-81
2023/06/21 03:37:28;;;;;;;6.05;3.25;;;;;;;;;;5064688;28;20071;-83
2023/06/21 03:39:54;;;;;;;10.63;3.67;;;;;;;;;;5037151;28;20048;-82
2023/06/21 03:42:21;;;;;;;9.13;3.40;;;;;;;;;;5046085;28;20053;-81
2023/06/21 03:44:48;;;;;;;8.30;3.50;;;;;;;;;;5062938;28;20051;-82
2023/06/21 03:47:15;;;;;;;8.02;3.78;;;;;;;;;;5047976;28;20049;-80
2023/06/21 03:49:42;;;;;;;12.10;3.80;;;;;;;;;;5064889;28;20043;-80
2023/06/21 03:52:12;;;;;;;9.23;4.20;;;;;;;;;;5043391;28;20128;-81
2023/06/21 03:54:39;;;;;;;7.60;3.65;;;;;;;;;;5045575;28;20037;-81
2023/06/21 03:57:05;;;;;;;9.75;4.40;;;;;;;;;;5045228;28;20079;-79
2023/06/21 03:59:32;;;;;;;12.40;4.35;;;;;;;;;;5066168;28;20053;-79
2023/06/21 04:01:59;;;;;;;8.35;4.03;;;;;;;;;;5035545;28;20162;-82
2023/06/21 04:04:25;;;;;;;10.38;3.85;;;;;;;;;;5034180;28;20042;-83
2023/06/21 04:06:52;;;;;;;14.57;4.20;;;;;;;;;;5039034;28;20051;-82
2023/06/21 04:09:18;;;;;;;10.80;4.40;;;;;;;;;;5049476;28;20088;-82
2023/06/21 04:11:45;;;;;;;9.55;4.15;;;;;;;;;;5047522;28;20046;-81
2023/06/21 04:14:15;;;;;;;8.93;4.18;;;;;;;;;;5032490;28;20049;-82
2023/06/21 04:16:42;;;;;;;10.38;3.95;;;;;;;;;;5046204;28;20041;-81
2023/06/21 04:19:09;;;;;;;11.25;4.25;;;;;;;;;;5036293;28;20125;-84
2023/06/21 04:21:35;;;;;;;14.18;4.40;;;;;;;;;;5066014;28;20049;-82
2023/06/21 04:24:02;;;;;;;6.30;3.60;;;;;;;;;;5050638;28;20080;-81
2023/06/21 04:26:29;;;;;;;16.88;4.40;;;;;;;;;;5029033;28;20037;-80
2023/06/21 04:28:56;;;;;;;8.18;4.18;;;;;;;;;;5030015;28;20099;-81
2023/06/21 04:31:22;;;;;;;14.02;4.50;;;;;;;;;;5028491;28;20037;-82
2023/06/21 04:33:51;;;;;;;7.80;4.03;;;;;;;;;;5024747;28;20095;-80
2023/06/21 04:36:18;;;;;;;10.85;4.43;;;;;;;;;;5019350;28;20045;-79
2023/06/21 04:38:48;;;;;;;7.35;4.57;;;;;;;;;;5022953;28;20179;-82
2023/06/21 04:41:18;;;;;;;9.75;4.38;;;;;;;;;;5029380;28;20105;-82
2023/06/21 04:43:45;;;;;;;8.45;4.38;;;;;;;;;;5030494;28;20062;-82
2023/06/21 04:46:11;;;;;;;11.38;4.22;;;;;;;;;;5029232;28;20145;-80
2023/06/21 04:48:38;;;;;;;12.00;4.70;;;;;;;;;;5033093;28;20030;-80
2023/06/21 04:51:08;;;;;;;10.18;4.47;;;;;;;;;;5034524;28;20541;-80
2023/06/21 04:53:34;;;;;;;8.00;4.30;;;;;;;;;;5054340;28;20123;-77
2023/06/21 04:56:01;;;;;;;14.20;5.20;;;;;;;;;;5054077;28;20051;-80
2023/06/21 04:58:35;;;;;;;13.88;5.15;;;;;;;;;;5075124;28;20063;-79
2023/06/21 05:01:02;;;;;;;9.63;4.72;;;;;;;;;;5042405;28;20046;-79
2023/06/21 05:03:28;;;;;;;10.98;4.63;;;;;;;;;;5030339;28;20099;-82
2023/06/21 05:05:55;;;;;;;11.20;4.57;;;;;;;;;;5033127;28;20083;-79
2023/06/21 05:08:22;;;;;;;6.80;4.45;;;;;;;;;;5022250;28;20045;-81
2023/06/21 05:10:53;;;;;;;9.05;4.40;;;;;;;;;;5024997;28;20050;-80
2023/06/21 05:13:36;;;;;;;12.38;4.65;;;;;;;;;;5023166;28;20140;-80
2023/06/21 05:16:02;;;;;;;9.15;4.72;;;;;;;;;;5024215;28;20037;-81
2023/06/21 05:18:32;;;;;;;10.00;4.78;;;;;;;;;;5023378;28;20060;-81
2023/06/21 05:20:58;;;;;;;13.02;4.85;;;;;;;;;;5024377;28;20099;-82
2023/06/21 05:23:25;;;;;;;10.38;4.63;;;;;;;;;;5024771;28;20046;-82
2023/06/21 05:25:52;;;;;;;9.60;4.53;;;;;;;;;;5039442;28;20397;-79
2023/06/21 05:28:18;;;;;;;8.60;4.28;;;;;;;;;;5045692;28;20068;-80
2023/06/21 05:30:45;;;;;;;8.77;4.43;;;;;;;;;;5049657;28;20064;-82
2023/06/21 05:33:11;;;;;;;7.65;4.05;;;;;;;;;;5052415;28;20060;-81
2023/06/21 05:35:40;;;;;;;7.78;4.20;;;;;;;;;;5044348;28;20131;-79
2023/06/21 05:38:08;;;;;;;12.45;5.00;;;;;;;;;;5044734;28;20049;-80
2023/06/21 05:40:35;;;;;;;6.97;4.38;;;;;;;;;;5048514;28;20108;-81
2023/06/21 05:43:02;;;;;;;9.25;4.50;;;;;;;;;;5043210;28;20052;-80
2023/06/21 05:45:28;;;;;;;13.90;4.72;;;;;;;;;;5045076;28;20049;-80
2023/06/21 05:47:56;;;;;;;11.15;4.55;;;;;;;;;;5046675;28;20041;-82
2023/06/21 05:50:24;;;;;;;10.60;4.82;;;;;;;;;;5047300;28;20110;-81
2023/06/21 05:52:51;;;;;;;12.30;5.15;;;;;;;;;;5050313;28;20041;-82
2023/06/21 05:55:18;;;;;;;11.48;4.93;;;;;;;;;;5047090;28;20061;-83
2023/06/21 05:57:44;;;;;;;7.90;4.80;;;;;;;;;;5064638;28;20641;-82
2023/06/21 06:00:11;;;;;;;10.07;4.78;;;;;;;;;;5068947;28;20040;-81
2023/06/21 06:02:43;;;;;;;10.88;4.90;;;;;;;;;;5079754;28;20052;-83
2023/06/21 06:05:10;;;;;;;11.95;5.13;;;;;;;;;;5078735;28;20055;-83
2023/06/21 06:07:37;;;;;;;10.55;5.03;;;;;;;;;;5077929;28;20047;-82
2023/06/21 06:10:10;;;;;;;11.77;4.72;;;;;;;;;;5079790;28;20119;-83
2023/06/21 06:12:36;;;;;;;7.43;4.63;;;;;;;;;;5079344;28;20476;-83
2023/06/21 06:15:03;;;;;;;8.13;4.68;;;;;;;;;;5079535;28;20563;-82
2023/06/21 06:17:30;;;;;;;12.05;4.82;;;;;;;;;;5077993;28;20040;-81
2023/06/21 06:19:57;;;;;;;8.10;4.38;;;;;;;;;;5076699;28;20036;-81
2023/06/21 06:22:24;;;;;;;8.82;4.13;;;;;;;;;;5081767;28;20056;-80
2023/06/21 06:24:50;;;;;;;9.98;4.38;;;;;;;;;;5086372;28;20052;-83
2023/06/21 06:27:17;;;;;;;9.35;4.70;;;;;;;;;;5084320;28;20045;-82
2023/06/21 06:29:43;;;;;;;8.50;4.22;;;;;;;;;;5081085;28;20044;-82
2023/06/21 06:32:10;;;;;;;8.02;4.28;;;;;;;;;;5092275;28;20055;-83
2023/06/21 06:34:37;;;;;;;7.60;4.10;;;;;;;;;;5080182;28;20044;-85
2023/06/21 06:37:04;;;;;;;7.78;4.15;;;;;;;;;;5079905;28;20044;-81
2023/06/21 06:39:41;;;;;;;7.38;3.80;;;;;;;;;;5080009;28;20044;-82
2023/06/21 06:42:10;;;;;;;9.88;4.82;;;;;;;;;;5078391;28;20090;-83
2023/06/21 06:44:37;;;;;;;9.07;4.13;;;;;;;;;;5077881;28;20048;-83
2023/06/21 06:47:05;;;;;;;10.02;4.30;;;;;;;;;;5093542;28;20100;-83
2023/06/21 06:49:32;;;;;;;9.75;4.65;;;;;;;;;;5078377;28;20036;-83
2023/06/21 06:51:58;;;;;;;7.72;3.97;;;;;;;;;;5079286;28;20072;-83
2023/06/21 06:54:25;;;;;;;8.93;4.05;;;;;;;;;;5077856;28;20047;-83
2023/06/21 06:56:52;;;;;;;14.77;4.38;;;;;;;;;;5069817;28;20133;-83
2023/06/21 06:59:19;;;;;;;13.02;4.55;;;;;;;;;;5058098;28;20042;-83
2023/06/21 07:01:45;;;;;;;9.95;4.57;;;;;;;;;;5053759;28;20038;-82
2023/06/21 07:04:12;;;;;;;10.43;4.75;;;;;;;;;;5037941;28;20045;-81
2023/06/21 07:06:40;;;;;;;8.43;4.55;;;;;;;;;;5038940;28;20045;-83
2023/06/21 07:09:06;;;;;;;15.80;4.70;;;;;;;;;;5037395;28;20050;-83
2023/06/21 07:11:33;;;;;;;11.93;4.65;;;;;;;;;;5037383;28;20045;-85
2023/06/21 07:14:00;;;;;;;11.32;4.88;;;;;;;;;;5043348;28;20073;-85
2023/06/21 07:16:30;;;;;;;11.50;4.47;;;;;;;;;;5035649;28;20049;-83
2023/06/21 07:18:56;;;;;;;10.38;4.50;;;;;;;;;;5058457;28;20510;-83
2023/06/21 07:21:25;;;;;;;12.75;4.82;;;;;;;;;;5052107;28;20413;-81
2023/06/21 07:23:51;;;;;;;14.93;4.72;;;;;;;;;;5045943;28;20060;-81
2023/06/21 07:26:19;;;;;;;8.65;4.30;;;;;;;;;;5045174;28;20252;-83
2023/06/21 07:28:48;;;;;;;9.18;4.35;;;;;;;;;;5050709;28;20504;-84
2023/06/21 07:31:15;;;;;;;9.52;4.53;;;;;;;;;;5056568;28;20132;-82
2023/06/21 07:33:41;;;;;;;11.10;4.43;;;;;;;;;;5040044;28;20120;-82
2023/06/21 07:36:10;;;;;;;10.05;4.68;;;;;;;;;;5047281;28;20040;-82
2023/06/21 07:38:37;;;;;;;11.95;4.80;;;;;;;;;;5048347;28;20045;-82
2023/06/21 07:41:04;;;;;;;11.95;4.85;;;;;;;;;;5048821;28;20064;-84
2023/06/21 07:43:31;;;;;;;10.23;4.55;;;;;;;;;;5047536;28;20057;-81
2023/06/21 07:45:57;;;;;;;7.03;4.60;;;;;;;;;;5048499;28;20049;-81
2023/06/21 07:48:40;;;;;;;8.20;4.85;;;;;;;;;;5065985;28;20107;-82
2023/06/21 07:51:07;;;;;;;10.93;4.55;;;;;;;;;;5050500;28;20097;-84
2023/06/21 07:53:34;;;;;;;9.90;4.20;;;;;;;;;;5052218;28;20049;-81
2023/06/21 07:56:00;;;;;;;8.95;4.20;;;;;;;;;;5049944;28;20060;-83
2023/06/21 07:58:28;;;;;;;10.25;4.35;;;;;;;;;;5068634;28;20481;-83
2023/06/21 08:00:54;;;;;;;8.10;4.43;;;;;;;;;;5075151;28;20075;-82
2023/06/21 08:03:21;;;;;;;6.18;3.95;;;;;;;;;;5078548;28;20068;-82
2023/06/21 08:05:48;;;;;;;9.00;4.15;;;;;;;;;;5077164;28;20044;-83
2023/06/21 08:08:17;;;;;;;8.15;4.20;;;;;;;;;;5097030;28;20045;-82
2023/06/21 08:10:44;;;;;;;6.68;3.97;;;;;;;;;;5078372;28;20098;-84
2023/06/21 08:13:11;;;;;;;11.40;4.40;;;;;;;;;;5076073;28;20106;-82
2023/06/21 08:15:37;;;;;;;7.03;4.30;;;;;;;;;;5078866;28;20075;-82
2023/06/21 08:18:07;;;;;;;12.90;5.00;;;;;;;;;;5092017;28;20079;-83
2023/06/21 08:20:34;;;;;;;11.98;4.70;;;;;;;;;;5078714;28;20044;-82
2023/06/21 08:23:01;;;;;;;10.27;4.38;;;;;;;;;;5080543;28;20193;-80
2023/06/21 08:25:28;;;;;;;9.57;4.65;;;;;;;;;;5085664;28;20059;-82
2023/06/21 08:27:56;;;;;;;7.05;4.68;;;;;;;;;;5088171;28;20052;-83
2023/06/21 08:30:23;;;;;;;9.70;4.78;;;;;;;;;;5082472;28;20139;-81
2023/06/21 08:32:50;;;;;;;8.05;4.55;;;;;;;;;;5081291;28;20116;-82
2023/06/21 08:35:17;;;;;;;9.63;4.80;;;;;;;;;;5080973;28;20078;-81
2023/06/21 08:37:57;;;;;;;7.70;4.72;;;;;;;;;;5080076;28;20047;-81
2023/06/21 08:40:30;;;;;;;6.97;4.43;;;;;;;;;;5081253;28;20052;-83
2023/06/21 08:42:58;;;;;;;11.15;5.68;;;;;;;;;;5082708;28;20037;-83
2023/06/21 08:45:24;;;;;;;10.23;5.75;;;;;;;;;;5080339;28;20036;-82
2023/06/21 08:47:52;;;;;;;12.02;5.82;;;;;;;;;;5082200;28;20041;-81
2023/06/21 08:50:20;;;;;;;8.77;5.80;;;;;;;;;;5085565;28;20071;-81
2023/06/21 08:52:47;;;;;;;11.25;6.55;;;;;;;;;;5083470;28;20040;-83
2023/06/21 08:55:15;;;;;;;11.95;5.88;;;;;;;;;;5082836;28;20320;-81
2023/06/21 08:57:46;;;;;;;12.52;5.68;;;;;;;;;;5074542;28;20540;-79
2023/06/21 09:00:16;;;;;;;13.20;5.50;;;;;;;;;;5065667;28;20099;-82
2023/06/21 09:02:48;;;;;;;8.10;5.38;;;;;;;;;;5043714;28;20072;-82
2023/06/21 09:05:35;;;;;;;10.38;5.40;;;;;;;;;;5041825;28;20073;-81
2023/06/21 09:08:02;;;;;;;14.73;5.88;;;;;;;;;;5038625;28;20045;-83
2023/06/21 09:10:33;;;;;;;8.73;6.00;;;;;;;;;;5038460;28;20121;-83
2023/06/21 09:13:03;;;;;;;12.07;5.95;;;;;;;;;;5041416;28;20045;-81
2023/06/21 09:15:30;;;;;;;9.00;6.05;;;;;;;;;;5041566;28;20068;-82
2023/06/21 09:17:59;;;;;;;8.70;6.15;;;;;;;;;;5039118;28;20053;-85
2023/06/21 09:20:28;;;;;;;17.15;6.65;;;;;;;;;;5043774;28;20065;-83
2023/06/21 09:22:59;;;;;;;16.45;7.07;;;;;;;;;;5042960;28;20049;-82
2023/06/21 09:25:27;;;;;;;16.10;7.88;;;;;;;;;;5042127;28;20046;-84
2023/06/21 09:27:55;;;;;;;11.48;7.15;;;;;;;;;;5040762;28;20045;-83
2023/06/21 09:30:22;;;;;;;9.68;6.45;;;;;;;;;;5040840;28;20080;-81
2023/06/21 09:33:03;;;;;;;7.82;5.70;;;;;;;;;;5042539;28;20041;-83
2023/06/21 09:35:30;;;;;;;9.80;5.50;;;;;;;;;;5044640;28;20049;-83
2023/06/21 09:37:57;;;;;;;12.30;6.25;;;;;;;;;;5057450;28;20099;-82
2023/06/21 09:40:24;;;;;;;11.50;6.15;;;;;;;;;;5043191;28;20049;-84
2023/06/21 09:42:50;;;;;;;7.50;5.40;;;;;;;;;;5041870;28;20049;-84
2023/06/21 09:45:18;;;;;;;10.27;5.57;;;;;;;;;;5041514;28;20056;-83
2023/06/21 09:47:45;;;;;;;9.95;5.95;;;;;;;;;;5040886;28;20045;-83
2023/06/21 09:50:12;;;;;;;11.13;5.28;;;;;;;;;;5038130;28;20053;-81
2023/06/21 09:52:43;;;;;;;9.00;5.05;;;;;;;;;;5042811;28;20041;-82
2023/06/21 09:55:13;;;;;;;10.23;4.90;;;;;;;;;;5041394;28;20417;-83
2023/06/21 09:57:45;;;;;;;9.63;4.97;;;;;;;;;;5043475;28;20053;-84
2023/06/21 10:00:15;;;;;;;;;;;;;;;;;;5033467;28;20042;-83
2023/06/21 10:02:42;;;;;;;8.98;5.32;;;;;;;;;;5043751;28;19921;-81
2023/06/21 10:05:19;;;;;;;8.85;5.15;;;;;;;;;;5059088;28;20041;-84
2023/06/21 10:07:46;;;;;;;7.03;4.70;;;;;;;;;;5056614;28;20086;-81
2023/06/21 10:10:13;;;;;;;10.02;4.28;;;;;;;;;;5042842;28;20059;-83
2023/06/21 10:12:53;;;;;;;10.85;5.45;;;;;;;;;;5042670;28;20117;-84
2023/06/21 10:15:22;;;;;;;8.02;5.28;;;;;;;;;;5040789;28;20107;-84
2023/06/21 10:17:49;;;;;;;7.72;4.80;;;;;;;;;;5041182;28;20041;-83
2023/06/21 10:20:30;;;;;;;7.90;4.07;;;;;;;;;;5057748;28;20065;-85
2023/06/21 10:22:58;;;;;;;9.43;3.92;;;;;;;;;;5043407;28;20045;-81
2023/06/21 10:25:26;;;;;;;8.55;3.97;;;;;;;;;;5046351;28;20485;-82
2023/06/21 10:27:54;;;;;;;7.53;4.15;;;;;;;;;;5046903;28;20064;-81
2023/06/21 10:30:22;;;;;;;8.45;4.28;;;;;;;;;;5057112;28;20072;-82
2023/06/21 10:32:49;;;;;;;9.18;4.40;;;;;;;;;;5042200;28;20045;-83
2023/06/21 10:35:17;;;;;;;8.35;4.72;;;;;;;;;;5045041;28;20056;-82
2023/06/21 10:37:48;;;;;;;6.10;4.57;;;;;;;;;;5043313;28;20045;-83
2023/06/21 10:40:16;;;;;;;7.85;4.53;;;;;;;;;;5042966;28;20053;-82
2023/06/21 10:42:43;;;;;;;7.13;4.47;;;;;;;;;;5041955;28;20045;-84
2023/06/21 10:45:10;;;;;;;6.97;4.88;;;;;;;;;;5042291;28;20048;-84
2023/06/21 10:47:40;;;;;;;5.93;4.78;;;;;;;;;;5060106;28;20041;-83
2023/06/21 10:50:11;;;;;;;7.47;5.05;;;;;;;;;;5045139;28;20095;-84
2023/06/21 10:52:38;;;;;;;9.27;4.82;;;;;;;;;;5045132;28;20089;-83
2023/06/21 10:55:06;;;;;;;7.97;4.32;;;;;;;;;;5042066;28;20053;-82
2023/06/21 10:57:33;;;;;;;7.88;5.00;;;;;;;;;;5041972;28;20656;-84
2023/06/21 11:00:02;;;;;;;5.68;4.50;;;;;;;;;;5051147;28;20046;-83
2023/06/21 11:02:32;;;;;;;11.15;4.80;;;;;;;;;;5056733;28;20053;-82
2023/06/21 11:05:21;;;;;;;10.98;4.75;;;;;;;;;;5044369;28;20063;-84
2023/06/21 11:07:50;;;;;;;9.70;4.57;;;;;;;;;;5038933;28;20041;-80
2023/06/21 11:10:20;;;;;;;6.57;5.20;;;;;;;;;;5059889;28;20048;-81
2023/06/21 11:12:46;;;;;;;8.40;4.28;;;;;;;;;;5042654;28;20044;-83
2023/06/21 11:15:25;;;;;;;8.70;4.60;;;;;;;;;;5042425;28;20194;-82
2023/06/21 11:18:08;;;;;;;7.28;4.60;;;;;;;;;;5050709;28;20037;-82
2023/06/21 11:20:56;;;;;;;6.68;4.88;;;;;;;;;;5054765;28;20036;-79
2023/06/21 11:23:23;;;;;;;9.45;4.90;;;;;;;;;;5063947;28;20068;-82
2023/06/21 11:25:53;;;;;;;9.70;4.90;;;;;;;;;;5055933;28;20053;-82
2023/06/21 11:28:23;;;;;;;9.10;4.63;;;;;;;;;;5071156;28;20059;-82
2023/06/21 11:31:03;;;;;;;9.27;5.00;;;;;;;;;;5057491;28;20041;-79
2023/06/21 11:33:31;;;;;;;14.02;4.75;;;;;;;;;;5065486;28;20041;-83
2023/06/21 11:36:04;;;;;;;5.68;4.55;;;;;;;;;;5054148;28;20049;-82
2023/06/21 11:38:32;;;;;;;7.22;4.97;;;;;;;;;;5056221;28;20049;-81
2023/06/21 11:40:59;;;;;;;7.95;5.13;;;;;;;;;;5052212;28;20112;-83
2023/06/21 11:43:26;;;;;;;11.30;4.78;;;;;;;;;;5051208;28;20056;-83
2023/06/21 11:46:04;;;;;;;8.10;4.80;;;;;;;;;;5068414;28;20051;-83
2023/06/21 11:48:32;;;;;;;6.70;4.82;;;;;;;;;;5061162;28;20037;-84
2023/06/21 11:51:11;;;;;;;6.38;4.75;;;;;;;;;;5052322;28;20180;-82
2023/06/21 11:53:41;;;;;;;8.00;4.60;;;;;;;;;;5050944;28;20105;-83
2023/06/21 11:56:19;;;;;;;7.68;4.60;;;;;;;;;;5050187;28;20045;-82
2023/06/21 11:58:46;;;;;;;7.32;4.45;;;;;;;;;;5057623;28;20120;-84
2023/06/21 12:01:14;;;;;;;6.80;4.57;;;;;;;;;;5047685;28;20045;-82
2023/06/21 12:03:40;;;;;;;6.35;4.35;;;;;;;;;;5057955;28;20271;-85
2023/06/21 12:06:07;;;;;;;11.35;4.10;;;;;;;;;;5055076;28;20049;-80
2023/06/21 12:08:35;;;;;;;7.88;4.30;;;;;;;;;;5070691;28;20052;-83
2023/06/21 12:11:05;;;;;;;9.18;4.55;;;;;;;;;;5054271;28;20037;-83
2023/06/21 12:13:33;;;;;;;7.20;4.43;;;;;;;;;;5058108;28;20040;-82
2023/06/21 12:16:03;;;;;;;7.30;4.53;;;;;;;;;;5069587;28;20140;-82
2023/06/21 12:18:31;;;;;;;5.68;4.43;;;;;;;;;;5055455;28;20235;-81
2023/06/21 12:20:59;;;;;;;7.85;4.53;;;;;;;;;;5058682;28;20085;-82
2023/06/21 12:23:28;;;;;;;5.28;4.53;;;;;;;;;;5056206;28;20114;-81
2023/06/21 12:25:55;;;;;;;11.85;4.40;;;;;;;;;;5057654;28;20041;-83
2023/06/21 12:28:23;;;;;;;7.47;4.28;;;;;;;;;;5059168;28;20348;-82
2023/06/21 12:30:55;;;;;;;9.57;4.55;;;;;;;;;;5055375;28;20048;-83
2023/06/21 12:33:26;;;;;;;9.48;4.40;;;;;;;;;;5055758;28;20052;-84
2023/06/21 12:36:08;;;;;;;8.60;3.92;;;;;;;;;;5058560;28;20051;-84
2023/06/21 12:38:35;;;;;;;8.63;4.60;;;;;;;;;;5084730;28;20094;-83
2023/06/21 12:41:02;;;;;;;7.95;4.32;;;;;;;;;;5072369;28;20128;-83
2023/06/21 12:43:34;;;;;;;6.82;4.25;;;;;;;;;;5047455;28;20226;-80
2023/06/21 12:46:01;;;;;;;4.93;3.90;;;;;;;;;;5065404;28;20052;-82
2023/06/21 12:48:28;;;;;;;5.15;4.00;;;;;;;;;;5067583;28;20053;-81
2023/06/21 12:50:55;;;;;;;9.05;4.43;;;;;;;;;;5079566;28;20049;-83
2023/06/21 12:53:22;;;;;;;6.68;4.20;;;;;;;;;;5065519;28;20099;-83
2023/06/21 12:55:49;;;;;;;6.28;3.72;;;;;;;;;;5064631;28;20044;-82
2023/06/21 12:58:16;;;;;;;6.75;4.22;;;;;;;;;;5038698;28;20270;-83
2023/06/21 13:00:42;;;;;;;7.55;3.95;;;;;;;;;;5045923;28;20048;-83
2023/06/21 13:03:09;;;;;;;7.68;4.43;;;;;;;;;;5047340;28;20045;-82
2023/06/21 13:05:36;;;;;;;6.05;4.50;;;;;;;;;;5044819;28;20037;-80
2023/06/21 13:08:02;;;;;;;7.55;4.03;;;;;;;;;;5043700;28;20223;-83
2023/06/21 13:10:29;;;;;;;10.38;4.25;;;;;;;;;;5037921;28;20100;-82
2023/06/21 13:12:56;;;;;;;8.30;3.90;;;;;;;;;;5029354;28;20117;-83
2023/06/21 13:15:23;;;;;;;8.30;3.90;;;;;;;;;;5026440;28;20048;-83
2023/06/21 13:17:50;;;;;;;7.40;4.03;;;;;;;;;;5027280;28;20069;-84
2023/06/21 13:20:17;;;;;;;4.63;3.85;;;;;;;;;;5025643;28;20061;-85
2023/06/21 13:22:43;;;;;;;6.38;4.00;;;;;;;;;;5026884;28;20161;-85
2023/06/21 13:25:10;;;;;;;8.00;4.10;;;;;;;;;;5032758;28;20061;-83
2023/06/21 13:27:37;;;;;;;7.65;4.03;;;;;;;;;;5027107;28;20052;-83
2023/06/21 13:30:04;;;;;;;5.25;3.85;;;;;;;;;;5026548;28;20052;-82
2023/06/21 13:32:32;;;;;;;6.18;3.80;;;;;;;;;;5028080;28;20065;-83
2023/06/21 13:34:58;;;;;;;5.90;4.10;;;;;;;;;;5027159;28;20056;-82
2023/06/21 13:37:25;;;;;;;6.22;3.80;;;;;;;;;;5041947;28;20049;-82
2023/06/21 13:39:52;;;;;;;7.97;3.78;;;;;;;;;;5030089;28;20057;-82
2023/06/21 13:42:18;;;;;;;5.55;3.92;;;;;;;;;;5034965;28;20053;-82
2023/06/21 13:44:45;;;;;;;6.45;3.67;;;;;;;;;;5037673;28;20048;-83
2023/06/21 13:47:12;;;;;;;6.55;4.05;;;;;;;;;;5036743;28;20058;-84
2023/06/21 13:49:38;;;;;;;10.88;4.25;;;;;;;;;;5039673;28;20049;-85
2023/06/21 13:52:05;;;;;;;7.28;3.92;;;;;;;;;;5036381;28;20084;-80
2023/06/21 13:54:32;;;;;;;9.30;3.97;;;;;;;;;;5032460;28;20111;-83
2023/06/21 13:57:03;;;;;;;7.82;4.20;;;;;;;;;;5059809;28;20452;-83
2023/06/21 13:59:34;;;;;;;8.43;4.20;;;;;;;;;;5040797;28;20046;-80
2023/06/21 14:02:01;;;;;;;6.95;4.15;;;;;;;;;;5043681;28;20067;-82
2023/06/21 14:04:28;;;;;;;7.35;3.90;;;;;;;;;;5042761;28;20049;-81
2023/06/21 14:06:56;;;;;;;5.28;3.83;;;;;;;;;;5042095;28;20058;-81
2023/06/21 14:09:22;;;;;;;8.98;3.83;;;;;;;;;;5039496;28;20152;-83
2023/06/21 14:11:49;;;;;;;5.07;3.90;;;;;;;;;;5045740;28;20045;-82
2023/06/21 14:14:16;;;;;;;6.05;3.90;;;;;;;;;;5044415;28;20049;-82
2023/06/21 14:16:43;;;;;;;9.15;3.83;;;;;;;;;;5047218;28;20049;-85
2023/06/21 14:19:10;;;;;;;9.77;4.10;;;;;;;;;;5048936;28;20056;-82
2023/06/21 14:21:37;;;;;;;7.97;3.70;;;;;;;;;;5046295;28;20489;-82
2023/06/21 14:24:04;;;;;;;5.40;3.70;;;;;;;;;;5042081;28;20571;-81
2023/06/21 14:26:32;;;;;;;5.32;4.05;;;;;;;;;;5039382;28;20041;-81
2023/06/21 14:28:59;;;;;;;11.15;4.47;;;;;;;;;;5041887;28;20057;-83
2023/06/21 14:31:25;;;;;;;8.30;4.38;;;;;;;;;;5033011;28;20079;-81
2023/06/21 14:33:54;;;;;;;8.20;4.55;;;;;;;;;;5036680;28;20053;-83
2023/06/21 14:36:21;;;;;;;9.27;4.55;;;;;;;;;;5031380;28;20064;-81
2023/06/21 14:38:50;;;;;;;6.35;4.30;;;;;;;;;;5022596;28;20164;-82
2023/06/21 14:41:17;;;;;;;8.98;4.47;;;;;;;;;;5034743;28;20159;-81
2023/06/21 14:43:44;;;;;;;10.57;4.65;;;;;;;;;;5044997;28;20041;-82
2023/06/21 14:46:13;;;;;;;7.85;4.05;;;;;;;;;;5021052;28;20045;-80